CheckWX is a tool to help pilots better visualize weather data.  It is not intended as a substitute for an official pre-flight weather briefing.

10:06:21 UTC

EDMA METAR
Augsburg Airport
Augsburg, Germany
Current

16 mins ago

EDMA 200950Z 23003KT 200V260 9999 BKN030 07/03 Q1024
Observed
Feb-20 @ 09:50 UTC
Wind
  • 230° at 3 KTS
Visibility
10,000+ meters
Flight Rules
MVFR
Cloud Levels
  • Broken at 3,000' AGL
Temperature
C / 45°F
Dewpoint
C / 37°F
Humidity
76%
Altimeter
30.24" Hg
Pressure
1023.92 hPa
Previous

46 mins ago

EDMA 200920Z 23004KT 9999 OVC031 07/03 Q1024
Observed
Feb-20 @ 09:20 UTC
Wind
  • 230° at 4 KTS
Visibility
10,000+ meters
Flight Rules
VFR
Cloud Levels
  • Overcast at 3,100' AGL
Temperature
C / 45°F
Dewpoint
C / 37°F
Humidity
76%
Altimeter
30.24" Hg
Pressure
1023.92 hPa
Previous

1 hour ago

EDMA 200850Z VRB01KT 9999 BKN032 06/03 Q1024
Observed
Feb-20 @ 08:50 UTC
Wind
  • Variable at 1 KTS
Visibility
10,000+ meters
Flight Rules
VFR
Cloud Levels
  • Broken at 3,200' AGL
Temperature
C / 43°F
Dewpoint
C / 37°F
Humidity
81%
Altimeter
30.24" Hg
Pressure
1023.92 hPa